Time;durP1;ratioP1;P1;durP2;ratioP2;P2;SDS_P1;SDS_P2;PMS_P1;PMS_P2;Temp;Humidity;BMP_temperature;BMP_pressure;BME280_temperature;BME280_humidity;BME280_pressure;Samples;Min_cycle;Max_cycle;Signal;HPM_P1;HPM_P2
2021/03/26 00:01:32;;;;;;;20.83;15.70;;;8.60;99.90;;;;;;4859894;29;20592;-74
2021/03/26 00:04:02;;;;;;;20.33;13.50;;;8.60;99.90;;;;;;4859360;29;20261;-75
2021/03/26 00:06:31;;;;;;;17.48;14.85;;;8.50;99.90;;;;;;4859452;29;20296;-74
2021/03/26 00:08:58;;;;;;;23.88;16.10;;;8.50;99.90;;;;;;4858357;29;20313;-74
2021/03/26 00:11:28;;;;;;;19.67;13.98;;;8.50;99.90;;;;;;4859779;29;20188;-74
2021/03/26 00:13:55;;;;;;;19.08;15.05;;;8.60;99.90;;;;;;4858314;29;20765;-75
2021/03/26 00:16:22;;;;;;;20.17;15.70;;;8.60;99.90;;;;;;4858937;29;20211;-75
2021/03/26 00:18:50;;;;;;;27.20;17.83;;;8.80;99.90;;;;;;4857846;29;20726;-74
2021/03/26 00:21:18;;;;;;;20.30;15.13;;;8.90;99.90;;;;;;4843002;29;20192;-74
2021/03/26 00:23:44;;;;;;;25.30;17.73;;;8.90;99.90;;;;;;4854231;29;20219;-75
2021/03/26 00:26:11;;;;;;;24.63;16.50;;;8.90;99.90;;;;;;4859166;29;20301;-75
2021/03/26 00:28:37;;;;;;;27.75;19.50;;;9.00;99.90;;;;;;4858360;29;20257;-74
2021/03/26 00:31:05;;;;;;;22.80;17.27;;;9.10;99.90;;;;;;4859275;29;20603;-74
2021/03/26 00:33:31;;;;;;;19.98;16.95;;;9.10;99.90;;;;;;4858942;29;20778;-76
2021/03/26 00:35:58;;;;;;;24.73;18.90;;;9.10;99.90;;;;;;4858766;29;20323;-76
2021/03/26 00:38:26;;;;;;;24.33;17.38;;;9.10;99.90;;;;;;4858082;29;20235;-76
2021/03/26 00:40:53;;;;;;;25.13;20.42;;;9.10;99.90;;;;;;4859270;29;20191;-76
2021/03/26 00:43:21;;;;;;;24.30;18.75;;;9.10;99.90;;;;;;4856739;29;20219;-76
2021/03/26 00:45:48;;;;;;;25.15;19.05;;;9.10;99.90;;;;;;4858887;29;20207;-76
2021/03/26 00:48:20;;;;;;;27.65;19.73;;;9.10;99.90;;;;;;4827242;29;20318;-76
2021/03/26 00:50:50;;;;;;;26.02;18.85;;;9.10;99.90;;;;;;4843269;29;20270;-76
2021/03/26 00:53:21;;;;;;;29.42;21.40;;;9.10;99.90;;;;;;4857777;29;20713;-76
2021/03/26 00:55:47;;;;;;;29.05;20.13;;;9.10;99.90;;;;;;4842542;29;20722;-76
2021/03/26 00:58:19;;;;;;;25.58;20.38;;;9.00;99.90;;;;;;4860634;29;20219;-76
2021/03/26 01:00:46;;;;;;;26.42;21.00;;;8.90;99.90;;;;;;4862930;29;20658;-76
2021/03/26 01:03:15;;;;;;;24.13;19.25;;;9.00;99.90;;;;;;4861231;29;20271;-76
2021/03/26 01:05:48;;;;;;;29.70;20.35;;;8.90;99.90;;;;;;4862436;29;20569;-76
2021/03/26 01:08:15;;;;;;;33.53;23.17;;;8.90;99.90;;;;;;4845015;29;20652;-76
2021/03/26 01:10:50;;;;;;;32.10;23.73;;;8.90;99.90;;;;;;4861485;29;20195;-76
2021/03/26 01:13:17;;;;;;;31.92;24.40;;;8.90;99.90;;;;;;4857529;29;20319;-76
2021/03/26 01:15:47;;;;;;;29.67;23.77;;;8.90;99.90;;;;;;4843198;29;20216;-76
2021/03/26 01:18:27;;;;;;;32.50;23.35;;;8.80;99.90;;;;;;4861513;29;20226;-75
2021/03/26 01:20:57;;;;;;;34.03;23.70;;;8.80;99.90;;;;;;4861390;29;20203;-76
2021/03/26 01:23:26;;;;;;;31.85;23.98;;;8.80;99.90;;;;;;4861679;29;20227;-76
2021/03/26 01:25:54;;;;;;;30.77;24.25;;;8.80;99.90;;;;;;4857800;29;20211;-76
2021/03/26 01:28:53;;;;;;;32.38;23.25;;;8.90;99.90;;;;;;4845056;29;20254;-76
2021/03/26 01:31:29;;;;;;;32.45;23.52;;;8.90;99.90;;;;;;4862570;29;20290;-76
2021/03/26 01:34:01;;;;;;;33.58;24.25;;;8.80;99.90;;;;;;4860263;29;20266;-76
2021/03/26 01:36:30;;;;;;;32.42;24.45;;;8.80;99.90;;;;;;4860006;29;20227;-76
2021/03/26 01:38:58;;;;;;;31.27;24.15;;;8.80;99.90;;;;;;4861445;29;20273;-76
2021/03/26 01:41:25;;;;;;;33.13;23.30;;;8.70;99.90;;;;;;4862308;29;20614;-76
2021/03/26 01:43:53;;;;;;;34.05;22.85;;;8.70;99.90;;;;;;4860581;29;20215;-76
2021/03/26 01:46:19;;;;;;;29.70;23.40;;;8.70;99.90;;;;;;4846231;29;20224;-76
2021/03/26 01:48:52;;;;;;;33.65;24.65;;;8.70;99.90;;;;;;4860196;29;20698;-75
2021/03/26 01:51:28;;;;;;;31.90;23.60;;;8.60;99.90;;;;;;4847517;29;20192;-76
2021/03/26 01:53:56;;;;;;;33.67;25.40;;;8.60;99.90;;;;;;4860749;29;20705;-76
2021/03/26 01:56:24;;;;;;;31.38;24.10;;;8.60;99.90;;;;;;4860238;29;20708;-76
2021/03/26 01:59:10;;;;;;;30.95;23.25;;;8.50;99.90;;;;;;4851026;29;20230;-76
2021/03/26 02:01:45;;;;;;;36.22;24.35;;;8.50;99.90;;;;;;4856999;29;20186;-76
2021/03/26 02:04:25;;;;;;;31.55;24.67;;;8.50;99.90;;;;;;4860836;29;20222;-76
2021/03/26 02:06:56;;;;;;;33.58;24.67;;;8.50;99.90;;;;;;4860152;29;20550;-76
2021/03/26 02:09:28;;;;;;;34.35;24.98;;;8.50;99.90;;;;;;4859171;29;20294;-76
2021/03/26 02:12:05;;;;;;;31.80;22.75;;;8.50;99.90;;;;;;4860404;29;20207;-76
2021/03/26 02:14:43;;;;;;;35.28;24.88;;;8.50;99.90;;;;;;4856178;29;20224;-76
2021/03/26 02:17:15;;;;;;;38.30;23.85;;;8.50;99.90;;;;;;4849791;29;20196;-76
2021/03/26 02:19:57;;;;;;;33.50;24.27;;;8.50;99.90;;;;;;4857753;29;20229;-76
2021/03/26 02:22:26;;;;;;;36.13;25.10;;;8.40;99.90;;;;;;4859262;29;20191;-76
2021/03/26 02:24:54;;;;;;;36.17;26.23;;;8.40;99.90;;;;;;4860804;29;20262;-76
2021/03/26 02:27:36;;;;;;;35.85;26.88;;;8.40;99.90;;;;;;4861083;29;20267;-76
2021/03/26 02:30:14;;;;;;;36.90;26.65;;;8.40;99.90;;;;;;4860932;29;20290;-76
2021/03/26 02:32:46;;;;;;;42.78;27.27;;;8.40;99.90;;;;;;4860541;29;20207;-76
2021/03/26 02:35:36;;;;;;;32.70;23.25;;;8.40;99.90;;;;;;4859946;29;20226;-76
2021/03/26 02:38:29;;;;;;;32.33;24.83;;;8.40;99.90;;;;;;4847793;29;20226;-76
2021/03/26 02:41:38;;;;;;;40.13;25.30;;;8.50;99.90;;;;;;4860857;29;20653;-76
2021/03/26 02:44:23;;;;;;;39.10;25.90;;;8.40;99.90;;;;;;4858170;29;20713;-76
2021/03/26 02:47:10;;;;;;;38.33;26.50;;;8.40;99.90;;;;;;4860665;29;20199;-76
2021/03/26 02:50:04;;;;;;;35.38;25.42;;;8.40;99.90;;;;;;4859308;29;20226;-76
2021/03/26 02:52:45;;;;;;;39.30;27.33;;;8.30;99.90;;;;;;4843405;29;20282;-76
2021/03/26 02:55:39;;;;;;;38.28;26.27;;;8.30;99.90;;;;;;4852850;29;20673;-76
2021/03/26 02:58:24;;;;;;;40.90;27.55;;;8.30;99.90;;;;;;4858176;29;20235;-76
2021/03/26 03:01:33;;;;;;;37.40;26.98;;;8.40;99.90;;;;;;4851641;29;20535;-76
2021/03/26 03:04:20;;;;;;;36.45;26.60;;;8.30;99.90;;;;;;4858959;29;20223;-76
2021/03/26 03:06:52;;;;;;;38.25;26.85;;;8.30;99.90;;;;;;4855540;29;20249;-76
2021/03/26 03:09:50;;;;;;;39.47;27.67;;;8.30;99.90;;;;;;4855056;29;20332;-76
2021/03/26 03:12:26;;;;;;;40.92;26.13;;;8.30;99.90;;;;;;4851669;29;20259;-76
2021/03/26 03:15:01;;;;;;;38.67;25.98;;;8.40;99.90;;;;;;4842954;29;20226;-76
2021/03/26 03:17:52;;;;;;;38.75;25.42;;;8.40;99.90;;;;;;4860317;29;20187;-76
2021/03/26 03:20:45;;;;;;;38.25;27.10;;;8.30;99.90;;;;;;4858059;29;20721;-76
2021/03/26 03:23:16;;;;;;;36.97;25.50;;;8.30;99.90;;;;;;4826223;29;20219;-76
2021/03/26 03:26:34;;;;;;;33.28;24.48;;;8.20;99.90;;;;;;4859826;29;20303;-76
2021/03/26 03:29:20;;;;;;;39.58;27.40;;;8.30;99.90;;;;;;4851004;29;20232;-76
2021/03/26 03:32:22;;;;;;;37.83;26.00;;;8.30;99.90;;;;;;4850462;29;20562;-76
2021/03/26 03:35:06;;;;;;;38.13;26.75;;;8.30;99.90;;;;;;4851845;29;20730;-76
2021/03/26 03:37:39;;;;;;;35.50;26.60;;;8.30;99.90;;;;;;4859082;29;20187;-76
2021/03/26 03:40:25;;;;;;;41.08;26.70;;;8.30;99.90;;;;;;4858643;29;20219;-76
2021/03/26 03:43:28;;;;;;;40.17;27.05;;;8.20;99.90;;;;;;4857477;29;20278;-76
2021/03/26 03:46:02;;;;;;;32.70;25.40;;;8.20;99.90;;;;;;4833173;29;20239;-76
2021/03/26 03:48:51;;;;;;;36.60;25.77;;;8.20;99.90;;;;;;4858296;29;20302;-76
2021/03/26 03:51:22;;;;;;;33.85;25.05;;;8.20;99.90;;;;;;4858723;29;20286;-76
2021/03/26 03:54:00;;;;;;;35.97;25.70;;;8.30;99.90;;;;;;4847820;29;20315;-76
2021/03/26 03:56:49;;;;;;;39.47;24.67;;;8.20;99.90;;;;;;4829612;29;20243;-76
2021/03/26 03:59:22;;;;;;;38.28;26.65;;;8.20;99.90;;;;;;4858712;29;20230;-76
2021/03/26 04:02:11;;;;;;;37.70;24.85;;;8.20;99.90;;;;;;4859827;29;20191;-76
2021/03/26 04:04:47;;;;;;;36.35;25.60;;;8.10;99.90;;;;;;4854277;29;20220;-76
2021/03/26 04:07:33;;;;;;;33.25;25.23;;;8.10;99.90;;;;;;4848910;29;20603;-76
2021/03/26 04:10:06;;;;;;;35.55;25.10;;;8.10;99.90;;;;;;4857707;29;20223;-76
2021/03/26 04:12:40;;;;;;;39.17;24.30;;;8.20;99.90;;;;;;4859697;29;20259;-76
2021/03/26 04:15:16;;;;;;;33.60;24.17;;;8.10;99.90;;;;;;4857666;29;20808;-76
2021/03/26 04:18:04;;;;;;;34.25;24.92;;;8.10;99.90;;;;;;4858334;29;20191;-76
2021/03/26 04:21:10;;;;;;;37.25;26.75;;;8.10;99.90;;;;;;4854338;29;20195;-76
2021/03/26 04:24:04;;;;;;;37.75;25.42;;;8.10;99.90;;;;;;4839050;29;20314;-76
2021/03/26 04:26:57;;;;;;;35.53;25.52;;;8.10;99.90;;;;;;4848609;29;20198;-76
2021/03/26 04:30:04;;;;;;;41.63;25.95;;;8.00;99.90;;;;;;4838833;29;20435;-76
2021/03/26 04:32:52;;;;;;;44.97;27.65;;;8.00;99.90;;;;;;4844312;29;20230;-76
2021/03/26 04:35:23;;;;;;;38.00;26.70;;;8.00;99.90;;;;;;4858141;29;20219;-76
2021/03/26 04:38:18;;;;;;;35.30;25.55;;;8.00;99.90;;;;;;4854256;29;20231;-76
2021/03/26 04:40:48;;;;;;;42.60;28.25;;;8.00;99.90;;;;;;4847839;29;20180;-76
2021/03/26 04:43:42;;;;;;;44.00;26.90;;;7.90;99.90;;;;;;4853602;29;20582;-76
2021/03/26 04:46:19;;;;;;;44.83;27.40;;;7.90;99.90;;;;;;4856994;29;20260;-76
2021/03/26 04:49:13;;;;;;;38.63;27.95;;;7.90;99.90;;;;;;4857304;29;20223;-76
2021/03/26 04:52:00;;;;;;;43.17;29.58;;;7.90;99.90;;;;;;4852130;29;20747;-76
2021/03/26 04:54:59;;;;;;;38.20;27.63;;;7.80;99.90;;;;;;4845987;29;20226;-76
2021/03/26 04:57:55;;;;;;;37.55;27.50;;;7.80;99.90;;;;;;4859120;29;20221;-76
2021/03/26 05:00:31;;;;;;;39.05;28.38;;;7.80;99.90;;;;;;4845217;29;20203;-76
2021/03/26 05:03:12;;;;;;;39.15;26.40;;;7.80;99.90;;;;;;4857435;29;20229;-76
2021/03/26 05:05:50;;;;;;;38.70;27.30;;;7.80;99.90;;;;;;4857352;29;20214;-76
2021/03/26 05:08:26;;;;;;;36.83;27.98;;;7.80;99.90;;;;;;4856884;29;20586;-76
2021/03/26 05:11:14;;;;;;;41.70;30.10;;;7.70;99.90;;;;;;4859234;29;20215;-76
2021/03/26 05:13:59;;;;;;;39.42;27.85;;;7.80;99.90;;;;;;4838495;29;20272;-76
2021/03/26 05:16:42;;;;;;;39.80;29.27;;;7.70;99.90;;;;;;4852138;29;20271;-76
2021/03/26 05:19:52;;;;;;;37.63;27.33;;;7.70;99.90;;;;;;4857168;29;20215;-76
2021/03/26 05:22:37;;;;;;;42.08;27.95;;;7.80;99.90;;;;;;4841624;29;20195;-76
2021/03/26 05:25:31;;;;;;;39.20;27.15;;;7.80;99.90;;;;;;4858616;29;20805;-76
2021/03/26 05:28:15;;;;;;;40.97;26.88;;;7.80;99.90;;;;;;4856323;29;20255;-76
2021/03/26 05:30:44;;;;;;;41.03;25.80;;;7.80;99.90;;;;;;4853867;29;20198;-76
2021/03/26 05:33:36;;;;;;;35.88;25.70;;;7.80;99.90;;;;;;4857124;29;20231;-76
2021/03/26 05:36:20;;;;;;;35.50;27.33;;;7.80;99.90;;;;;;4857038;29;20219;-76
2021/03/26 05:39:19;;;;;;;35.65;25.67;;;7.80;99.90;;;;;;4857300;29;20226;-76
2021/03/26 05:42:17;;;;;;;40.05;27.70;;;7.80;99.90;;;;;;4858933;29;20194;-76
2021/03/26 05:45:26;;;;;;;40.78;27.85;;;7.80;99.90;;;;;;4855406;29;20254;-76
2021/03/26 05:48:40;;;;;;;44.13;30.15;;;7.90;99.90;;;;;;4837124;29;20219;-76
2021/03/26 05:51:46;;;;;;;42.30;28.30;;;7.90;99.90;;;;;;4860515;29;20566;-76
2021/03/26 05:54:47;;;;;;;45.33;27.77;;;8.00;99.90;;;;;;4844335;29;20587;-76
2021/03/26 05:57:53;;;;;;;40.70;27.38;;;8.00;99.90;;;;;;4860318;29;20239;-76
2021/03/26 06:00:45;;;;;;;41.72;26.85;;;8.00;99.90;;;;;;4861432;29;20250;-76
2021/03/26 06:03:58;;;;;;;39.22;27.33;;;8.00;99.90;;;;;;4850147;29;20224;-76
2021/03/26 06:07:24;;;;;;;40.25;26.67;;;8.10;99.90;;;;;;4856123;29;20273;-76
2021/03/26 06:10:30;;;;;;;38.22;27.67;;;8.10;99.90;;;;;;4821171;29;20225;-76
2021/03/26 06:13:54;;;;;;;37.45;26.17;;;8.10;99.90;;;;;;4806392;29;20734;-76
2021/03/26 06:17:13;;;;;;;34.90;24.73;;;8.10;99.90;;;;;;4861667;29;20202;-76
2021/03/26 06:20:32;;;;;;;37.13;25.45;;;8.20;99.90;;;;;;4855280;29;20730;-75
2021/03/26 06:23:47;;;;;;;36.53;26.10;;;8.20;99.90;;;;;;4852332;29;20215;-76
2021/03/26 06:26:55;;;;;;;38.25;27.50;;;8.30;99.90;;;;;;4844549;29;20578;-76
2021/03/26 06:29:29;;;;;;;37.88;26.55;;;8.40;99.90;;;;;;4843508;29;20227;-76
2021/03/26 06:32:15;;;;;;;35.85;26.55;;;8.50;99.90;;;;;;4859976;29;20290;-76
2021/03/26 06:35:23;;;;;;;35.65;27.05;;;8.50;99.90;;;;;;4860592;29;20222;-76
2021/03/26 06:38:23;;;;;;;35.95;26.17;;;8.70;99.90;;;;;;4769005;30;20597;-76
2021/03/26 06:41:09;;;;;;;33.15;23.65;;;8.90;99.90;;;;;;4833946;29;20278;-76
2021/03/26 06:43:58;;;;;;;34.28;24.10;;;9.00;99.90;;;;;;4840856;29;20211;-76
2021/03/26 06:46:48;;;;;;;35.83;25.52;;;9.10;99.90;;;;;;4860725;29;20213;-76
2021/03/26 06:49:36;;;;;;;33.85;25.25;;;9.20;99.90;;;;;;4860210;29;20706;-76
2021/03/26 06:52:21;;;;;;;33.85;24.17;;;9.40;99.90;;;;;;4842284;29;20203;-76
2021/03/26 06:55:27;;;;;;;31.55;22.83;;;9.50;99.90;;;;;;4858185;29;20599;-76
2021/03/26 06:58:13;;;;;;;32.47;23.63;;;9.70;99.90;;;;;;4825731;29;20231;-76
2021/03/26 07:01:04;;;;;;;36.40;25.88;;;9.80;99.90;;;;;;4847531;29;20204;-76
2021/03/26 07:03:36;;;;;;;26.65;21.65;;;9.90;99.90;;;;;;4854262;29;20231;-76
2021/03/26 07:06:44;;;;;;;33.20;22.05;;;10.00;99.90;;;;;;4858540;29;20215;-76
2021/03/26 07:09:35;;;;;;;26.23;20.05;;;10.10;99.90;;;;;;4860117;29;20235;-76
2021/03/26 07:12:37;;;;;;;26.80;19.27;;;10.10;99.90;;;;;;4859040;29;20681;-76
2021/03/26 07:15:23;;;;;;;25.42;20.17;;;10.30;99.90;;;;;;4802078;29;20228;-76
2021/03/26 07:18:27;;;;;;;26.17;19.90;;;10.40;99.90;;;;;;4858554;29;20231;-76
2021/03/26 07:21:31;;;;;;;31.60;22.30;;;10.60;99.90;;;;;;4856227;29;20452;-76
2021/03/26 07:24:12;;;;;;;27.25;20.83;;;10.70;99.90;;;;;;4857920;29;20479;-76
2021/03/26 07:26:59;;;;;;;27.52;21.15;;;10.80;99.90;;;;;;4858569;29;20206;-76
2021/03/26 07:29:45;;;;;;;25.30;20.13;;;10.80;99.90;;;;;;4848831;29;20310;-76
2021/03/26 07:32:24;;;;;;;31.00;21.30;;;10.90;99.90;;;;;;4860068;29;20439;-76
2021/03/26 07:35:12;;;;;;;26.07;22.53;;;11.00;99.90;;;;;;4858757;29;20310;-76
2021/03/26 07:38:00;;;;;;;26.90;20.77;;;11.20;99.90;;;;;;4856440;29;20443;-76
2021/03/26 07:40:39;;;;;;;28.37;20.93;;;11.20;99.90;;;;;;4837268;29;20479;-75
2021/03/26 07:43:39;;;;;;;25.07;21.13;;;11.30;99.90;;;;;;4856093;29;20840;-75
2021/03/26 07:46:35;;;;;;;26.63;20.40;;;11.30;99.90;;;;;;4856043;29;20468;-76
2021/03/26 07:49:33;;;;;;;24.63;20.90;;;11.50;99.90;;;;;;4859842;29;20528;-76
2021/03/26 07:52:25;;;;;;;25.10;18.83;;;11.60;99.90;;;;;;4851133;29;20478;-75
2021/03/26 07:55:10;;;;;;;24.63;19.40;;;11.90;99.90;;;;;;4858544;29;20881;-76
2021/03/26 07:58:02;;;;;;;25.87;20.17;;;12.20;99.90;;;;;;4858950;29;20432;-76
2021/03/26 08:00:44;;;;;;;22.77;18.60;;;12.60;99.90;;;;;;4859053;29;20975;-76
2021/03/26 08:03:16;;;;;;;22.97;17.07;;;12.80;99.90;;;;;;4858233;29;20468;-76
2021/03/26 08:05:58;;;;;;;24.77;19.17;;;12.90;99.90;;;;;;4858267;29;20465;-76
2021/03/26 08:08:53;;;;;;;22.33;17.57;;;13.00;99.90;;;;;;4851435;29;20464;-76
2021/03/26 08:12:04;;;;;;;22.90;17.97;;;13.10;99.90;;;;;;4851418;29;20446;-76
2021/03/26 08:15:08;;;;;;;22.37;17.67;;;13.20;99.90;;;;;;4805651;29;20485;-76
2021/03/26 08:18:14;;;;;;;21.10;17.67;;;13.40;99.90;;;;;;4837950;29;20440;-76
2021/03/26 08:20:53;;;;;;;24.07;17.87;;;13.60;99.90;;;;;;4839775;29;20505;-76
2021/03/26 08:24:04;;;;;;;18.33;16.40;;;13.70;99.90;;;;;;4850263;29;20524;-76
2021/03/26 08:26:51;;;;;;;18.73;16.73;;;14.00;98.80;;;;;;4820377;29;20493;-76
2021/03/26 08:29:30;;;;;;;20.00;15.93;;;13.90;98.50;;;;;;4812136;29;20676;-76
2021/03/26 08:32:03;;;;;;;20.57;15.07;;;13.90;97.90;;;;;;4847457;29;20491;-76
2021/03/26 08:34:59;;;;;;;16.20;13.80;;;14.40;95.50;;;;;;4858659;29;20529;-76
2021/03/26 08:37:45;;;;;;;15.43;11.97;;;14.70;92.90;;;;;;4858960;29;20420;-76
2021/03/26 08:40:23;;;;;;;16.87;13.00;;;14.60;91.90;;;;;;4825212;29;20485;-76
2021/03/26 08:42:50;;;;;;;15.93;12.30;;;14.60;91.70;;;;;;4840389;29;20832;-76
2021/03/26 08:45:40;;;;;;;14.60;13.10;;;14.80;90.10;;;;;;4843901;29;20456;-76
2021/03/26 08:48:30;;;;;;;16.60;13.17;;;14.90;89.20;;;;;;4858927;29;20835;-76
2021/03/26 08:51:06;;;;;;;19.43;12.93;;;14.60;89.80;;;;;;4859671;29;20426;-76
2021/03/26 08:54:11;;;;;;;13.83;11.27;;;14.40;90.40;;;;;;4835541;29;20475;-76
2021/03/26 08:57:09;;;;;;;15.40;11.43;;;14.30;90.20;;;;;;4840785;29;20509;-76
2021/03/26 09:00:14;;;;;;;15.20;11.23;;;14.20;90.20;;;;;;4856689;29;20475;-76
2021/03/26 09:03:08;;;;;;;14.60;11.20;;;14.50;87.30;;;;;;4855745;29;20516;-76
2021/03/26 09:06:25;;;;;;;15.43;11.07;;;14.50;87.70;;;;;;4858171;29;20795;-76
2021/03/26 09:09:01;;;;;;;16.97;10.60;;;14.50;88.40;;;;;;4852653;29;20993;-76
2021/03/26 09:12:01;;;;;;;15.00;11.20;;;14.50;88.60;;;;;;4859112;29;20542;-75
2021/03/26 09:15:07;;;;;;;12.80;10.40;;;14.70;87.90;;;;;;4855949;29;20513;-76
2021/03/26 09:17:53;;;;;;;12.97;10.63;;;14.80;86.80;;;;;;4857436;29;21132;-76
2021/03/26 09:20:31;;;;;;;14.27;9.93;;;15.00;84.30;;;;;;4862356;29;21102;-76
2021/03/26 09:23:19;;;;;;;13.00;9.80;;;14.90;83.50;;;;;;4861690;29;20480;-76
2021/03/26 09:26:20;;;;;;;14.53;10.33;;;14.90;82.90;;;;;;4861969;29;20461;-75
2021/03/26 09:28:52;;;;;;;9.80;8.80;;;15.10;79.40;;;;;;4829705;29;20485;-76
2021/03/26 09:31:42;;;;;;;28.37;10.70;;;14.90;81.50;;;;;;4862045;29;20940;-76
2021/03/26 09:34:35;;;;;;;9.47;8.47;;;14.80;83.30;;;;;;4859832;29;20471;-76
2021/03/26 09:37:29;;;;;;;13.57;9.40;;;14.90;82.00;;;;;;4841549;29;20665;-76
2021/03/26 09:40:00;;;;;;;13.73;9.73;;;15.10;80.50;;;;;;4860057;29;20539;-76
2021/03/26 09:42:41;;;;;;;12.27;9.37;;;15.00;82.10;;;;;;4859675;29;20487;-75
2021/03/26 09:45:16;;;;;;;15.40;8.50;;;15.20;79.50;;;;;;4844362;29;20478;-75
2021/03/26 09:48:01;;;;;;;13.60;10.20;;;15.10;80.90;;;;;;4844683;29;20450;-76
2021/03/26 09:50:41;;;;;;;12.70;8.50;;;15.10;81.40;;;;;;4861870;29;20436;-76
2021/03/26 09:53:14;;;;;;;11.17;8.50;;;15.00;80.60;;;;;;4858315;29;21003;-75
2021/03/26 09:55:43;;;;;;;12.00;8.60;;;15.10;80.80;;;;;;4861474;29;20466;-75
2021/03/26 09:58:29;;;;;;;11.33;8.50;;;15.20;80.30;;;;;;4857653;29;20493;-76
2021/03/26 10:01:32;;;;;;;12.13;8.83;;;15.10;80.90;;;;;;4844312;29;20482;-76
2021/03/26 10:04:12;;;;;;;12.30;8.37;;;15.30;79.20;;;;;;4859905;29;20535;-76
2021/03/26 10:07:01;;;;;;;10.73;7.80;;;15.60;74.20;;;;;;4860078;29;20550;-75
2021/03/26 10:10:00;;;;;;;8.60;7.03;;;15.90;78.20;;;;;;4841949;29;20477;-76
2021/03/26 10:12:37;;;;;;;12.50;8.23;;;15.90;74.90;;;;;;4842261;29;20467;-76
2021/03/26 10:15:17;;;;;;;10.70;7.80;;;15.80;72.40;;;;;;4852059;29;20510;-76
2021/03/26 10:18:22;;;;;;;13.77;8.90;;;15.90;72.60;;;;;;4859631;29;20551;-76
2021/03/26 10:21:03;;;;;;;11.30;10.07;;;15.80;72.10;;;;;;4804248;29;20481;-76
2021/03/26 10:23:56;;;;;;;12.70;8.70;;;15.90;73.40;;;;;;4852386;29;20500;-76
2021/03/26 10:26:49;;;;;;;9.57;7.47;;;15.80;73.00;;;;;;4856215;29;20953;-76
2021/03/26 10:29:42;;;;;;;12.00;7.17;;;15.50;73.60;;;;;;4860045;29;20902;-76
2021/03/26 10:32:32;;;;;;;8.97;6.50;;;15.50;74.50;;;;;;4861158;29;20439;-76
2021/03/26 10:35:10;;;;;;;11.60;7.10;;;15.80;72.60;;;;;;4860664;29;20480;-76
2021/03/26 10:37:58;;;;;;;9.37;6.77;;;16.10;71.20;;;;;;4835083;29;21032;-76
2021/03/26 10:40:47;;;;;;;7.60;5.67;;;16.00;67.80;;;;;;4861380;29;20470;-75
2021/03/26 10:43:33;;;;;;;8.03;6.30;;;15.70;69.60;;;;;;4843123;29;21040;-76
2021/03/26 10:46:14;;;;;;;9.47;6.63;;;15.50;71.90;;;;;;4860702;29;20554;-75
2021/03/26 10:49:09;;;;;;;15.03;7.50;;;15.50;73.20;;;;;;4858618;29;20842;-75
2021/03/26 10:51:54;;;;;;;10.33;7.23;;;15.30;70.80;;;;;;4859651;29;20434;-75
2021/03/26 10:54:32;;;;;;;9.90;6.63;;;15.10;72.20;;;;;;4849060;29;20471;-76
2021/03/26 10:57:13;;;;;;;7.87;7.07;;;15.00;73.00;;;;;;4860770;29;20464;-75
2021/03/26 10:59:46;;;;;;;9.13;6.77;;;15.00;73.10;;;;;;4858693;29;20488;-75
2021/03/26 11:02:23;;;;;;;9.37;7.63;;;14.90;73.50;;;;;;4860572;29;20432;-75
2021/03/26 11:05:07;;;;;;;10.37;7.73;;;14.80;73.80;;;;;;4858915;29;20474;-75
2021/03/26 11:07:49;;;;;;;12.30;8.80;;;14.80;74.80;;;;;;4858630;29;20439;-75
2021/03/26 11:10:21;;;;;;;10.43;7.57;;;14.70;74.70;;;;;;4843861;29;20472;-75
2021/03/26 11:12:56;;;;;;;9.00;7.77;;;14.70;75.70;;;;;;4860031;29;20450;-75
2021/03/26 11:15:50;;;;;;;10.27;8.27;;;14.60;75.90;;;;;;4852479;29;20501;-76
2021/03/26 11:18:39;;;;;;;8.73;7.83;;;14.70;74.90;;;;;;4858570;29;20580;-76
2021/03/26 11:21:15;;;;;;;9.43;7.33;;;14.80;75.00;;;;;;4851338;29;20441;-75
2021/03/26 11:24:05;;;;;;;12.53;9.73;;;14.70;75.40;;;;;;4859545;29;20851;-76
2021/03/26 11:27:29;;;;;;;16.00;11.57;;;14.70;76.40;;;;;;4825671;29;20538;-75
2021/03/26 11:30:32;;;;;;;13.50;7.67;;;14.80;76.20;;;;;;4825642;29;20523;-75
2021/03/26 11:33:18;;;;;;;8.60;7.17;;;15.00;75.70;;;;;;4829818;29;20478;-75
2021/03/26 11:35:48;;;;;;;9.40;6.97;;;15.00;76.40;;;;;;4825497;29;20470;-75
2021/03/26 11:38:22;;;;;;;9.47;7.20;;;15.10;75.50;;;;;;4857615;29;20488;-75
2021/03/26 11:41:02;;;;;;;12.23;9.30;;;15.20;74.70;;;;;;4858521;29;21083;-75
2021/03/26 11:43:40;;;;;;;11.53;9.50;;;15.40;72.20;;;;;;4857666;29;20541;-75
2021/03/26 11:46:12;;;;;;;9.80;8.00;;;15.60;68.50;;;;;;4858735;29;20548;-75
2021/03/26 11:48:55;;;;;;;10.30;7.57;;;15.70;70.50;;;;;;4843277;29;20477;-75
2021/03/26 11:51:37;;;;;;;13.77;8.97;;;15.70;70.30;;;;;;4858596;29;20438;-75
2021/03/26 11:54:19;;;;;;;10.50;8.00;;;15.90;69.40;;;;;;4835702;29;20645;-75
2021/03/26 11:56:52;;;;;;;11.07;6.67;;;16.00;70.10;;;;;;4858523;29;20802;-76
2021/03/26 11:59:56;;;;;;;7.87;5.63;;;16.00;68.30;;;;;;4857093;29;20489;-75
2021/03/26 12:02:26;;;;;;;6.90;5.80;;;16.10;64.70;;;;;;4858555;29;20433;-76
2021/03/26 12:05:02;;;;;;;10.40;5.97;;;16.00;64.40;;;;;;4858984;29;20605;-75
2021/03/26 12:08:20;;;;;;;8.03;5.97;;;16.10;63.70;;;;;;4853706;29;20517;-76
2021/03/26 12:11:09;;;;;;;9.67;6.27;;;16.10;61.30;;;;;;4847065;29;20446;-76
2021/03/26 12:13:50;;;;;;;6.43;5.70;;;16.10;63.70;;;;;;4852218;29;20876;-76
2021/03/26 12:16:23;;;;;;;4.67;4.17;;;16.10;62.60;;;;;;4858999;29;20470;-76
2021/03/26 12:18:50;;;;;;;5.30;3.90;;;16.00;60.00;;;;;;4858706;29;20565;-76
2021/03/26 12:21:35;;;;;;;6.10;3.60;;;15.80;61.40;;;;;;4859315;29;20478;-76
2021/03/26 12:24:27;;;;;;;4.70;3.60;;;15.90;64.10;;;;;;4858579;29;20470;-75
2021/03/26 12:27:20;;;;;;;8.77;2.90;;;15.90;61.30;;;;;;4857949;29;20439;-76
2021/03/26 12:29:57;;;;;;;11.07;4.67;;;16.00;61.80;;;;;;4849446;29;21001;-76
2021/03/26 12:32:38;;;;;;;8.30;4.47;;;16.30;59.80;;;;;;4859603;29;20971;-76
2021/03/26 12:35:15;;;;;;;8.57;3.10;;;16.20;59.90;;;;;;4858824;29;20474;-76
2021/03/26 12:37:47;;;;;;;4.50;2.53;;;16.20;59.00;;;;;;4858149;29;20506;-76
2021/03/26 12:40:26;;;;;;;6.27;3.30;;;16.20;58.60;;;;;;4859256;29;20506;-76
2021/03/26 12:43:01;;;;;;;5.87;3.67;;;16.10;56.70;;;;;;4856605;29;21331;-76
2021/03/26 12:45:38;;;;;;;6.97;5.23;;;16.20;57.60;;;;;;4835968;29;20513;-76
2021/03/26 12:48:11;;;;;;;5.43;3.33;;;16.40;57.60;;;;;;4858941;29;20498;-76
2021/03/26 12:51:00;;;;;;;6.07;3.23;;;16.50;56.00;;;;;;4858391;29;20502;-76
2021/03/26 12:53:39;;;;;;;8.00;3.10;;;16.50;53.10;;;;;;4842070;29;20535;-76
2021/03/26 12:56:08;;;;;;;8.83;2.57;;;16.50;56.30;;;;;;4855963;29;20960;-76
2021/03/26 12:59:21;;;;;;;2.20;2.00;;;16.60;57.10;;;;;;4855997;29;20529;-76
2021/03/26 13:01:59;;;;;;;6.07;2.40;;;16.50;53.80;;;;;;4811667;29;20480;-75
2021/03/26 13:05:15;;;;;;;4.77;2.40;;;16.50;54.50;;;;;;4823322;29;20844;-75
2021/03/26 13:07:54;;;;;;;4.30;2.70;;;16.40;56.20;;;;;;4795485;29;20490;-76
2021/03/26 13:10:39;;;;;;;4.77;2.13;;;16.40;56.60;;;;;;4862514;29;20442;-76
2021/03/26 13:13:08;;;;;;;3.53;2.93;;;16.40;55.60;;;;;;4860718;29;20957;-76
2021/03/26 13:15:36;;;;;;;4.50;2.87;;;16.40;54.40;;;;;;4857063;29;20453;-76
2021/03/26 13:18:09;;;;;;;8.53;2.47;;;16.40;54.90;;;;;;4860512;29;20463;-76
2021/03/26 13:20:56;;;;;;;5.73;2.80;;;16.40;54.60;;;;;;4862578;29;20506;-76
2021/03/26 13:23:31;;;;;;;6.40;2.60;;;16.30;55.30;;;;;;4860566;29;20481;-76
2021/03/26 13:26:03;;;;;;;5.83;3.20;;;16.40;53.60;;;;;;4862157;29;20458;-76
2021/03/26 13:28:41;;;;;;;6.83;2.90;;;16.50;54.20;;;;;;4860337;29;20614;-76
2021/03/26 13:31:13;;;;;;;7.63;3.30;;;16.40;54.30;;;;;;4882141;23;21058;-73
2021/03/26 13:33:47;;;;;;;3.47;2.77;;;16.30;53.70;;;;;;4863625;29;20556;-74
2021/03/26 13:36:31;;;;;;;4.70;3.50;;;16.10;56.30;;;;;;4877754;29;20457;-74
2021/03/26 13:39:16;;;;;;;7.47;3.10;;;16.10;56.40;;;;;;4856355;29;20467;-74
2021/03/26 13:42:10;;;;;;;6.30;4.23;;;16.20;57.10;;;;;;4862491;29;20478;-75
2021/03/26 13:44:50;;;;;;;8.03;3.23;;;16.40;54.60;;;;;;4851652;29;20904;-74
2021/03/26 13:47:27;;;;;;;6.93;3.10;;;16.40;55.60;;;;;;4865164;29;20850;-74
2021/03/26 13:50:00;;;;;;;6.50;3.20;;;16.40;55.10;;;;;;4868680;29;20568;-78
2021/03/26 13:52:46;;;;;;;2.70;1.80;;;16.30;55.40;;;;;;4846151;29;20462;-79
2021/03/26 13:55:23;;;;;;;4.90;2.13;;;16.20;55.20;;;;;;4845769;29;20466;-81
2021/03/26 13:58:00;;;;;;;5.20;2.33;;;16.00;55.50;;;;;;4861978;29;20531;-76
2021/03/26 14:00:28;;;;;;;5.80;2.20;;;15.90;56.20;;;;;;4830697;29;20490;-74
2021/03/26 14:03:15;;;;;;;2.90;1.97;;;15.80;57.60;;;;;;4869601;29;20823;-75
2021/03/26 14:05:46;;;;;;;2.53;2.20;;;15.70;56.70;;;;;;4861900;29;20465;-74